Time;durP1;ratioP1;P1;durP2;ratioP2;P2;SDS_P1;SDS_P2;PMS_P1;PMS_P2;Temp;Humidity;BMP_temperature;BMP_pressure;BME280_temperature;BME280_humidity;BME280_pressure;Samples;Min_cycle;Max_cycle;Signal;HPM_P1;HPM_P2
2020/12/07 00:01:45;;;;;;;142.07;44.85;;;9.90;63.90;;;;;;4974819;28;20521;-62
2020/12/07 00:04:11;;;;;;;145.15;43.33;;;9.90;64.00;;;;;;4978203;28;20053;-61
2020/12/07 00:06:37;;;;;;;158.30;44.42;;;9.90;63.90;;;;;;4980324;28;20030;-62
2020/12/07 00:09:06;;;;;;;154.40;44.00;;;9.80;63.90;;;;;;4974973;28;20043;-61
2020/12/07 00:11:33;;;;;;;153.43;45.90;;;9.90;63.90;;;;;;4981859;28;20046;-62
2020/12/07 00:13:59;;;;;;;142.57;46.25;;;9.80;64.60;;;;;;4979891;28;20049;-61
2020/12/07 00:16:25;;;;;;;157.55;44.80;;;9.80;64.00;;;;;;4975698;28;20571;-61
2020/12/07 00:18:51;;;;;;;151.88;44.25;;;9.80;64.00;;;;;;4981935;28;20448;-62
2020/12/07 00:21:17;;;;;;;144.48;43.17;;;9.80;64.00;;;;;;4974587;28;20863;-61
2020/12/07 00:23:43;;;;;;;147.68;42.10;;;9.80;64.00;;;;;;4975594;28;20172;-61
2020/12/07 00:26:11;;;;;;;158.38;45.30;;;9.80;64.00;;;;;;4980111;28;20046;-61
2020/12/07 00:28:37;;;;;;;159.13;43.97;;;9.80;64.00;;;;;;4970438;28;20049;-61
2020/12/07 00:31:06;;;;;;;157.00;45.53;;;9.80;64.00;;;;;;4977251;28;20092;-62
2020/12/07 00:33:32;;;;;;;151.45;43.85;;;9.80;64.00;;;;;;4976111;28;20121;-62
2020/12/07 00:35:58;;;;;;;162.63;44.75;;;9.80;64.00;;;;;;4981444;28;20502;-61
2020/12/07 00:38:27;;;;;;;164.80;44.92;;;9.80;64.00;;;;;;4978674;28;20038;-62
2020/12/07 00:40:52;;;;;;;163.15;46.28;;;9.80;64.00;;;;;;4981837;28;20499;-62
2020/12/07 00:43:18;;;;;;;170.23;45.88;;;9.80;63.90;;;;;;4975425;28;20034;-62
2020/12/07 00:45:44;;;;;;;161.82;45.47;;;9.80;64.00;;;;;;4972271;28;20639;-61
2020/12/07 00:48:09;;;;;;;158.95;44.55;;;9.80;64.10;;;;;;4977117;28;20104;-61
2020/12/07 00:50:35;;;;;;;153.73;44.25;;;9.70;64.00;;;;;;4977226;28;20038;-61
2020/12/07 00:53:05;;;;;;;145.60;41.97;;;9.70;64.10;;;;;;4983111;28;20042;-61
2020/12/07 00:55:30;;;;;;;158.23;43.30;;;9.70;64.20;;;;;;4979920;28;20038;-62
2020/12/07 00:57:56;;;;;;;152.65;44.63;;;9.70;64.20;;;;;;4979852;28;20045;-61
2020/12/07 01:00:22;;;;;;;148.02;44.60;;;9.70;64.20;;;;;;4981433;28;20100;-62
2020/12/07 01:02:47;;;;;;;139.57;41.50;;;9.70;64.20;;;;;;4976364;28;20038;-61
2020/12/07 01:05:13;;;;;;;138.07;42.13;;;9.70;64.20;;;;;;4980009;28;20049;-61
2020/12/07 01:07:38;;;;;;;157.60;43.42;;;9.70;64.20;;;;;;4978931;28;20042;-61
2020/12/07 01:10:04;;;;;;;152.80;42.63;;;9.70;64.00;;;;;;4983404;28;20046;-61
2020/12/07 01:12:30;;;;;;;149.73;45.17;;;9.70;64.10;;;;;;4979597;28;20034;-62
2020/12/07 01:14:55;;;;;;;147.55;41.70;;;9.70;64.20;;;;;;4982696;28;20080;-61
2020/12/07 01:17:21;;;;;;;159.18;43.33;;;9.70;64.30;;;;;;4981522;28;20072;-61
2020/12/07 01:19:47;;;;;;;155.40;44.38;;;9.70;64.30;;;;;;4985322;28;20034;-62
2020/12/07 01:22:12;;;;;;;153.38;43.28;;;9.70;64.30;;;;;;4982130;28;20260;-61
2020/12/07 01:24:38;;;;;;;151.63;41.95;;;9.70;64.30;;;;;;4981419;28;20034;-62
2020/12/07 01:27:04;;;;;;;151.18;42.28;;;9.70;64.40;;;;;;4976916;28;20080;-61
2020/12/07 01:29:30;;;;;;;139.30;41.17;;;9.70;64.30;;;;;;4988306;28;20054;-61
2020/12/07 01:31:56;;;;;;;162.40;42.70;;;9.70;64.30;;;;;;4986453;28;20154;-61
2020/12/07 01:34:21;;;;;;;152.07;43.45;;;9.70;64.40;;;;;;4982222;28;20514;-62
2020/12/07 01:36:47;;;;;;;131.27;41.17;;;9.60;64.30;;;;;;4983086;28;21133;-61
2020/12/07 01:39:12;;;;;;;142.00;39.40;;;9.70;64.40;;;;;;4980429;28;20081;-62
2020/12/07 01:41:38;;;;;;;143.18;39.42;;;9.70;64.40;;;;;;4983146;28;20034;-61
2020/12/07 01:44:03;;;;;;;130.25;39.42;;;9.70;64.30;;;;;;4984520;28;20042;-62
2020/12/07 01:46:29;;;;;;;133.32;38.97;;;9.70;64.30;;;;;;4985934;28;20066;-62
2020/12/07 01:48:55;;;;;;;140.25;41.83;;;9.80;64.30;;;;;;4970955;28;20049;-61
2020/12/07 01:51:22;;;;;;;142.70;40.33;;;9.70;64.20;;;;;;4971941;28;20049;-61
2020/12/07 01:53:48;;;;;;;131.85;40.95;;;9.80;64.20;;;;;;4975250;28;20038;-61
2020/12/07 01:56:30;;;;;;;156.30;43.03;;;9.80;64.20;;;;;;4977441;28;20414;-61
2020/12/07 01:58:59;;;;;;;137.13;39.85;;;9.80;64.20;;;;;;4984240;28;20120;-61
2020/12/07 02:01:26;;;;;;;132.57;39.45;;;9.80;64.10;;;;;;4985880;28;20045;-61
2020/12/07 02:03:55;;;;;;;145.38;41.15;;;9.80;64.10;;;;;;4983548;28;20069;-61
2020/12/07 02:06:21;;;;;;;138.82;41.25;;;9.80;64.20;;;;;;4985567;28;20037;-61
2020/12/07 02:08:50;;;;;;;148.82;41.15;;;9.80;64.20;;;;;;4981190;28;20389;-61
2020/12/07 02:11:18;;;;;;;143.25;40.40;;;9.80;64.20;;;;;;4983430;28;20046;-61
2020/12/07 02:13:45;;;;;;;145.93;40.78;;;9.80;64.20;;;;;;4980900;28;20050;-61
2020/12/07 02:16:10;;;;;;;149.52;42.25;;;9.80;64.20;;;;;;4985191;28;20594;-61
2020/12/07 02:18:36;;;;;;;135.95;41.35;;;9.80;64.20;;;;;;4981754;28;20050;-61
2020/12/07 02:21:02;;;;;;;143.10;41.35;;;9.80;64.00;;;;;;4984461;28;20042;-62
2020/12/07 02:23:28;;;;;;;140.10;41.80;;;9.80;64.10;;;;;;4986928;28;20514;-61
2020/12/07 02:25:53;;;;;;;147.15;42.70;;;9.80;64.10;;;;;;4981054;28;20070;-61
2020/12/07 02:28:19;;;;;;;149.05;41.03;;;9.90;64.20;;;;;;4978441;28;20054;-61
2020/12/07 02:30:44;;;;;;;135.68;41.33;;;9.90;64.20;;;;;;4984667;28;20395;-61
2020/12/07 02:33:10;;;;;;;140.32;40.67;;;9.90;64.00;;;;;;4981369;28;20976;-61
2020/12/07 02:35:36;;;;;;;134.35;40.17;;;9.90;64.00;;;;;;4979789;28;20057;-61
2020/12/07 02:38:01;;;;;;;137.98;41.25;;;9.90;64.00;;;;;;4981706;28;20102;-62
2020/12/07 02:40:27;;;;;;;146.05;40.90;;;9.90;63.90;;;;;;4978415;28;20042;-62
2020/12/07 02:42:53;;;;;;;154.15;42.15;;;9.90;63.90;;;;;;4981219;28;20038;-62
2020/12/07 02:45:18;;;;;;;148.73;40.63;;;9.90;63.80;;;;;;4985042;28;20038;-61
2020/12/07 02:47:44;;;;;;;142.15;40.72;;;9.90;63.90;;;;;;4975272;28;20727;-60
2020/12/07 02:50:11;;;;;;;149.70;41.30;;;9.90;63.90;;;;;;4987639;28;20510;-61
2020/12/07 02:52:38;;;;;;;152.45;41.40;;;9.80;63.90;;;;;;4982193;28;20038;-61
2020/12/07 02:55:09;;;;;;;153.38;40.75;;;9.80;63.90;;;;;;4994396;28;20509;-61
2020/12/07 02:57:34;;;;;;;150.55;40.72;;;9.80;63.90;;;;;;4979301;28;25518;-61
2020/12/07 03:00:00;;;;;;;151.70;41.35;;;9.80;64.30;;;;;;4980231;28;20407;-61
2020/12/07 03:02:26;;;;;;;146.57;41.10;;;9.90;64.00;;;;;;4978318;28;20187;-61
2020/12/07 03:04:52;;;;;;;149.18;42.03;;;9.80;63.90;;;;;;4983499;28;20073;-61
2020/12/07 03:07:17;;;;;;;154.88;41.65;;;9.80;63.90;;;;;;4982465;28;20368;-61
2020/12/07 03:09:43;;;;;;;163.85;42.15;;;9.80;64.00;;;;;;4984336;28;20042;-61
2020/12/07 03:12:10;;;;;;;163.55;40.97;;;9.80;64.00;;;;;;4985576;28;20080;-60
2020/12/07 03:14:36;;;;;;;164.70;41.83;;;9.80;64.10;;;;;;4985341;28;20046;-61
2020/12/07 03:17:03;;;;;;;161.70;41.42;;;9.70;64.20;;;;;;4979891;28;20796;-61
2020/12/07 03:19:28;;;;;;;143.45;41.13;;;9.70;64.20;;;;;;4985451;28;20124;-61
2020/12/07 03:21:54;;;;;;;161.18;40.75;;;9.70;64.20;;;;;;4981388;28;20041;-61
2020/12/07 03:24:20;;;;;;;157.57;39.67;;;9.70;64.20;;;;;;4981734;28;20046;-61
2020/12/07 03:26:46;;;;;;;155.13;39.83;;;9.70;64.20;;;;;;4984153;28;20037;-61
2020/12/07 03:29:12;;;;;;;148.43;39.35;;;9.70;65.00;;;;;;4979404;28;20060;-61
2020/12/07 03:31:39;;;;;;;158.27;41.75;;;9.70;64.30;;;;;;4985954;28;20111;-62
2020/12/07 03:34:07;;;;;;;168.70;40.80;;;9.70;64.30;;;;;;4986080;28;20946;-62
2020/12/07 03:36:33;;;;;;;165.93;40.85;;;9.70;64.30;;;;;;4982108;28;20049;-61
2020/12/07 03:38:59;;;;;;;143.07;37.40;;;9.70;64.30;;;;;;4977045;28;20049;-61
2020/12/07 03:41:24;;;;;;;143.38;38.05;;;9.60;64.30;;;;;;4980979;28;20546;-61
2020/12/07 03:43:50;;;;;;;157.65;39.08;;;9.70;64.30;;;;;;4975460;28;20577;-61
2020/12/07 03:46:16;;;;;;;162.05;38.55;;;9.60;64.30;;;;;;4983223;28;20218;-61
2020/12/07 03:48:42;;;;;;;156.70;37.58;;;9.60;64.30;;;;;;4982184;28;20061;-61
2020/12/07 03:51:08;;;;;;;160.38;38.72;;;9.60;64.30;;;;;;4977458;28;20451;-63
2020/12/07 03:53:35;;;;;;;155.45;38.25;;;9.60;64.30;;;;;;4982799;28;20829;-65
2020/12/07 03:56:02;;;;;;;141.35;37.35;;;9.60;64.40;;;;;;4981006;28;20666;-66
2020/12/07 03:58:28;;;;;;;143.98;35.90;;;9.60;64.50;;;;;;4996609;28;20033;-61
2020/12/07 04:00:55;;;;;;;141.98;37.47;;;9.60;64.40;;;;;;4982673;28;20038;-61
2020/12/07 04:03:21;;;;;;;146.50;35.28;;;9.60;64.40;;;;;;4981667;28;20549;-60
2020/12/07 04:05:55;;;;;;;148.52;37.47;;;9.60;64.40;;;;;;4986356;28;20050;-60
2020/12/07 04:08:21;;;;;;;153.98;37.30;;;9.60;64.50;;;;;;4984807;28;20049;-60
2020/12/07 04:10:46;;;;;;;139.55;37.13;;;9.50;64.50;;;;;;4980581;28;20045;-61
2020/12/07 04:13:12;;;;;;;158.45;37.75;;;9.60;64.60;;;;;;4980431;28;20042;-60
2020/12/07 04:15:38;;;;;;;147.60;37.40;;;9.60;64.50;;;;;;4982378;28;20041;-60
2020/12/07 04:18:03;;;;;;;146.38;36.95;;;9.60;64.60;;;;;;4980192;28;20048;-60
2020/12/07 04:20:29;;;;;;;149.30;36.25;;;9.60;64.60;;;;;;4983429;28;20050;-60
2020/12/07 04:22:54;;;;;;;144.70;37.67;;;9.60;64.50;;;;;;4979772;28;20046;-60
2020/12/07 04:25:21;;;;;;;135.85;36.67;;;9.60;64.60;;;;;;4985475;28;20045;-60
2020/12/07 04:27:46;;;;;;;142.07;34.45;;;9.60;64.60;;;;;;4977567;28;20037;-60
2020/12/07 04:30:12;;;;;;;122.60;33.42;;;9.60;64.60;;;;;;4985727;28;20052;-60
2020/12/07 04:32:38;;;;;;;131.85;34.20;;;9.60;64.60;;;;;;4981108;28;20053;-60
2020/12/07 04:35:04;;;;;;;140.40;34.17;;;9.60;64.50;;;;;;4981799;28;20053;-60
2020/12/07 04:37:29;;;;;;;132.52;33.83;;;9.60;64.60;;;;;;4983517;28;20124;-60
2020/12/07 04:39:55;;;;;;;126.20;33.80;;;9.60;64.60;;;;;;4984024;28;20063;-60
2020/12/07 04:42:21;;;;;;;142.02;33.20;;;9.60;64.60;;;;;;4971168;28;20042;-60
2020/12/07 04:44:47;;;;;;;119.63;32.88;;;9.60;64.60;;;;;;4975916;28;20050;-60
2020/12/07 04:47:16;;;;;;;130.45;34.03;;;9.60;65.40;;;;;;4977421;28;20068;-60
2020/12/07 04:49:43;;;;;;;130.48;31.85;;;9.60;64.60;;;;;;4980510;28;20161;-59
2020/12/07 04:52:09;;;;;;;120.78;33.55;;;9.60;64.60;;;;;;4986966;28;20042;-60
2020/12/07 04:54:38;;;;;;;125.45;31.77;;;9.60;64.70;;;;;;4979805;28;20042;-60
2020/12/07 04:57:05;;;;;;;134.52;33.78;;;9.50;64.60;;;;;;4983267;28;20046;-60
2020/12/07 04:59:34;;;;;;;114.63;32.20;;;9.50;64.70;;;;;;4974906;28;20050;-60
2020/12/07 05:02:01;;;;;;;114.18;31.55;;;9.60;64.80;;;;;;4979711;28;20103;-60
2020/12/07 05:04:26;;;;;;;112.82;31.58;;;9.60;64.80;;;;;;4983401;28;20042;-60
2020/12/07 05:07:07;;;;;;;129.00;32.50;;;9.60;64.70;;;;;;4984310;28;20482;-65
2020/12/07 05:09:35;;;;;;;110.43;31.48;;;9.60;64.80;;;;;;4984709;28;20580;-61
2020/12/07 05:12:04;;;;;;;126.90;30.98;;;9.60;64.80;;;;;;4979156;28;20498;-61
2020/12/07 05:14:31;;;;;;;121.80;32.70;;;9.60;64.70;;;;;;4998967;23;20046;-63
2020/12/07 05:16:58;;;;;;;120.55;30.75;;;9.60;64.70;;;;;;4958581;28;20034;-63
2020/12/07 05:19:23;;;;;;;105.47;28.73;;;9.60;64.70;;;;;;4964006;28;20037;-63
2020/12/07 05:21:49;;;;;;;113.35;30.42;;;9.50;64.70;;;;;;4966416;28;23648;-63
2020/12/07 05:24:18;;;;;;;121.45;32.92;;;9.60;64.80;;;;;;4973957;28;20105;-63
2020/12/07 05:26:45;;;;;;;111.78;30.05;;;9.50;64.90;;;;;;4967354;28;21438;-63
2020/12/07 05:29:17;;;;;;;122.63;30.88;;;9.60;64.90;;;;;;4972164;28;20054;-63
2020/12/07 05:31:44;;;;;;;112.25;30.13;;;9.60;64.90;;;;;;4970923;28;20197;-63
2020/12/07 05:34:10;;;;;;;117.25;30.95;;;9.60;65.00;;;;;;4971293;28;20119;-63
2020/12/07 05:36:35;;;;;;;103.05;29.35;;;9.60;65.00;;;;;;4968670;28;20498;-63
2020/12/07 05:39:07;;;;;;;108.75;30.85;;;9.60;64.90;;;;;;4968150;28;20866;-63
2020/12/07 05:41:34;;;;;;;115.50;30.55;;;9.60;64.90;;;;;;4974204;28;20114;-63
2020/12/07 05:44:03;;;;;;;116.57;33.65;;;9.60;64.90;;;;;;4972668;28;21051;-63
2020/12/07 05:46:29;;;;;;;112.15;31.13;;;9.60;64.90;;;;;;4967888;28;20120;-63
2020/12/07 05:48:56;;;;;;;124.03;32.47;;;9.60;64.90;;;;;;4963896;28;20042;-63
2020/12/07 05:51:26;;;;;;;117.03;32.13;;;9.60;64.90;;;;;;4965567;28;20038;-63
2020/12/07 05:53:53;;;;;;;114.38;31.13;;;9.60;64.80;;;;;;4963834;28;20057;-65
2020/12/07 05:56:24;;;;;;;102.00;31.02;;;9.70;64.80;;;;;;4958801;28;20515;-64
2020/12/07 05:59:03;;;;;;;119.85;32.50;;;9.70;64.80;;;;;;4960711;28;20125;-64
2020/12/07 06:01:30;;;;;;;106.50;30.52;;;9.60;64.70;;;;;;4955961;28;20095;-65
2020/12/07 06:03:58;;;;;;;112.03;32.70;;;9.60;64.70;;;;;;4958683;28;20054;-64
2020/12/07 06:06:33;;;;;;;123.68;32.42;;;9.60;64.90;;;;;;4954658;28;20038;-64
2020/12/07 06:09:04;;;;;;;119.40;32.70;;;9.60;65.10;;;;;;4959456;28;20050;-65
2020/12/07 06:11:44;;;;;;;111.70;33.03;;;9.60;65.00;;;;;;4955898;28;20052;-65
2020/12/07 06:14:11;;;;;;;118.60;33.33;;;9.60;65.00;;;;;;4958831;28;20046;-63
2020/12/07 06:16:37;;;;;;;120.13;33.60;;;9.60;65.00;;;;;;4958948;28;20766;-62
2020/12/07 06:19:14;;;;;;;105.43;34.00;;;9.60;64.90;;;;;;4964505;28;20051;-62
2020/12/07 06:21:55;;;;;;;117.53;33.85;;;9.60;65.00;;;;;;4958176;28;20050;-62
2020/12/07 06:24:21;;;;;;;125.88;34.65;;;9.60;65.00;;;;;;4960954;28;20122;-63
2020/12/07 06:27:04;;;;;;;108.53;33.42;;;9.60;64.90;;;;;;4963642;28;20082;-62
2020/12/07 06:29:30;;;;;;;114.53;32.90;;;9.60;65.00;;;;;;4959285;28;20098;-63
2020/12/07 06:31:58;;;;;;;120.32;33.42;;;9.60;65.00;;;;;;4961410;28;20054;-65
2020/12/07 06:34:32;;;;;;;111.40;32.88;;;9.60;65.00;;;;;;4967967;28;20042;-63
2020/12/07 06:36:58;;;;;;;119.40;34.20;;;9.70;65.00;;;;;;4964542;28;20054;-62
2020/12/07 06:39:24;;;;;;;118.63;34.75;;;9.60;64.90;;;;;;4968033;28;20045;-62
2020/12/07 06:41:49;;;;;;;116.47;34.88;;;9.70;64.90;;;;;;4966820;28;20043;-62
2020/12/07 06:44:19;;;;;;;116.80;34.35;;;9.70;64.90;;;;;;4961553;28;20065;-63
2020/12/07 06:47:16;;;;;;;112.65;33.70;;;9.70;64.80;;;;;;4967993;28;20044;-63
2020/12/07 06:52:13;;;;;;;113.20;34.63;;;9.70;64.80;;;;;;4958265;28;20050;-63
2020/12/07 06:57:42;;;;;;;112.05;33.88;;;9.60;64.80;;;;;;4961338;28;20105;-64
2020/12/07 07:00:09;;;;;;;112.05;33.80;;;9.70;64.90;;;;;;4961273;28;20046;-63
2020/12/07 07:02:42;;;;;;;116.20;35.30;;;9.60;64.80;;;;;;4966582;28;20061;-64
2020/12/07 07:05:09;;;;;;;114.50;33.58;;;9.60;64.90;;;;;;4966969;28;20076;-64
2020/12/07 07:07:35;;;;;;;116.75;34.47;;;9.60;64.90;;;;;;4970021;28;20046;-63
2020/12/07 07:10:01;;;;;;;112.18;36.00;;;9.60;65.00;;;;;;4972676;28;21243;-63
2020/12/07 07:12:28;;;;;;;109.85;33.40;;;9.60;65.00;;;;;;4973569;28;20117;-63
2020/12/07 07:14:56;;;;;;;112.85;34.65;;;9.60;65.00;;;;;;4970491;28;20137;-63
2020/12/07 07:17:24;;;;;;;109.32;34.53;;;9.60;65.00;;;;;;4962617;28;20035;-63
2020/12/07 07:19:49;;;;;;;109.00;35.38;;;9.60;65.00;;;;;;4967394;28;20049;-63
2020/12/07 07:22:16;;;;;;;118.90;35.95;;;9.60;65.00;;;;;;4969734;28;20039;-64
2020/12/07 07:24:48;;;;;;;113.97;36.95;;;9.60;65.00;;;;;;4971359;28;20042;-64
2020/12/07 07:29:58;;;;;;;124.18;35.83;;;9.60;65.10;;;;;;4971683;28;20093;-63
2020/12/07 07:32:24;;;;;;;122.03;36.50;;;9.60;65.10;;;;;;4971787;28;20046;-63
2020/12/07 07:34:50;;;;;;;119.20;34.67;;;9.60;65.10;;;;;;4966282;28;20043;-63
2020/12/07 07:37:17;;;;;;;109.68;34.03;;;9.60;65.00;;;;;;4971980;28;20518;-63
2020/12/07 07:39:45;;;;;;;120.10;34.10;;;9.60;65.10;;;;;;4974191;28;20125;-63
2020/12/07 07:42:16;;;;;;;102.70;33.65;;;9.60;65.80;;;;;;4973169;28;20046;-64
2020/12/07 07:44:46;;;;;;;99.22;33.90;;;9.60;65.20;;;;;;4973953;28;20157;-63
2020/12/07 07:47:21;;;;;;;108.10;34.58;;;9.60;65.20;;;;;;4961875;28;20046;-63
2020/12/07 08:17:50;;;;;;;85.65;30.70;;;9.60;65.40;;;;;;4969693;28;20107;-63
2020/12/07 08:20:17;;;;;;;85.97;29.35;;;9.60;65.30;;;;;;4966056;28;20039;-64
2020/12/07 08:23:03;;;;;;;88.03;28.90;;;9.60;65.30;;;;;;4965903;28;20066;-63
2020/12/07 08:25:41;;;;;;;80.90;28.02;;;9.70;65.40;;;;;;4964784;28;20101;-64
2020/12/07 08:28:23;;;;;;;73.68;27.25;;;9.70;65.40;;;;;;4963809;28;20046;-64
2020/12/07 08:31:14;;;;;;;79.40;25.73;;;9.70;65.30;;;;;;4965858;28;20043;-63
2020/12/07 08:34:03;;;;;;;65.00;25.33;;;9.70;65.40;;;;;;4963968;28;20104;-63
2020/12/07 08:36:33;;;;;;;66.10;24.77;;;9.70;65.30;;;;;;4966065;28;20189;-63
2020/12/07 08:39:00;;;;;;;56.10;22.55;;;9.70;65.40;;;;;;4968578;28;20045;-63
2020/12/07 08:41:32;;;;;;;64.15;22.95;;;9.60;65.30;;;;;;4968218;28;20061;-63
2020/12/07 08:44:01;;;;;;;61.90;22.35;;;9.60;65.40;;;;;;4969700;28;20523;-63
2020/12/07 08:46:28;;;;;;;56.70;21.02;;;9.70;65.30;;;;;;4964165;28;20046;-64
2020/12/07 08:48:54;;;;;;;51.45;21.63;;;9.70;65.30;;;;;;4961923;28;20042;-64
2020/12/07 08:51:21;;;;;;;50.38;20.52;;;9.70;65.30;;;;;;4966161;28;20045;-63
2020/12/07 08:53:47;;;;;;;45.70;20.60;;;9.70;65.30;;;;;;4961938;28;20442;-63
2020/12/07 08:56:13;;;;;;;46.95;17.75;;;9.70;65.20;;;;;;4961293;28;20038;-63
2020/12/07 08:58:39;;;;;;;40.35;18.40;;;9.70;65.10;;;;;;4966250;28;20035;-63
2020/12/07 09:01:07;;;;;;;38.47;18.02;;;9.60;65.10;;;;;;4961768;28;20451;-63
2020/12/07 09:03:33;;;;;;;40.72;18.50;;;9.60;65.10;;;;;;4969558;28;20049;-63
2020/12/07 09:06:06;;;;;;;40.25;18.92;;;9.60;65.20;;;;;;4962633;28;20173;-63
2020/12/07 09:08:33;;;;;;;34.20;16.17;;;9.60;65.20;;;;;;4968063;28;20107;-64
2020/12/07 09:10:58;;;;;;;25.67;13.90;;;9.50;65.10;;;;;;4971221;28;20050;-63
2020/12/07 09:13:24;;;;;;;26.48;13.05;;;9.60;65.20;;;;;;4969852;28;20031;-63
2020/12/07 09:15:54;;;;;;;17.33;9.98;;;9.50;65.10;;;;;;4967109;28;20078;-63
2020/12/07 09:18:20;;;;;;;17.48;9.70;;;9.50;65.10;;;;;;4966331;28;20153;-63
2020/12/07 09:20:46;;;;;;;22.35;10.90;;;9.50;65.20;;;;;;4965564;28;20054;-63
2020/12/07 09:23:12;;;;;;;18.77;9.82;;;9.50;65.20;;;;;;4972118;28;20061;-63
2020/12/07 09:25:37;;;;;;;25.77;11.25;;;9.50;65.10;;;;;;4971156;28;20618;-63
2020/12/07 09:28:03;;;;;;;25.88;11.40;;;9.50;65.00;;;;;;4966945;28;20125;-63
2020/12/07 09:30:29;;;;;;;24.27;11.98;;;9.50;65.00;;;;;;4974840;28;20447;-63
2020/12/07 09:32:55;;;;;;;21.95;11.98;;;9.50;65.00;;;;;;4968978;28;20341;-63
2020/12/07 09:35:23;;;;;;;22.65;12.82;;;9.50;65.10;;;;;;4964253;28;20415;-63
2020/12/07 09:37:48;;;;;;;22.75;12.80;;;9.50;65.00;;;;;;4968406;28;20039;-63
2020/12/07 09:40:16;;;;;;;22.80;12.40;;;9.40;64.90;;;;;;4967365;28;20035;-64
2020/12/07 09:42:42;;;;;;;21.85;12.70;;;9.50;65.30;;;;;;4973934;28;20031;-63
2020/12/07 09:45:08;;;;;;;21.20;12.70;;;9.50;65.40;;;;;;4971963;28;20034;-63
2020/12/07 09:47:34;;;;;;;19.13;11.13;;;9.60;65.40;;;;;;4969982;28;20088;-63
2020/12/07 09:50:05;;;;;;;16.90;10.60;;;9.60;65.20;;;;;;4970938;28;20069;-63
2020/12/07 09:52:33;;;;;;;16.48;10.80;;;9.70;65.10;;;;;;4973488;28;20129;-63
2020/12/07 09:54:59;;;;;;;17.17;10.25;;;9.70;64.90;;;;;;4975317;28;20042;-63
2020/12/07 09:57:24;;;;;;;16.95;10.00;;;9.70;64.70;;;;;;4967642;28;20036;-63
2020/12/07 09:59:50;;;;;;;19.70;10.27;;;9.70;64.60;;;;;;4973271;28;20530;-63
2020/12/07 10:02:17;;;;;;;18.23;10.75;;;9.70;64.60;;;;;;4974925;28;20517;-63
2020/12/07 10:04:43;;;;;;;17.58;10.27;;;9.60;64.50;;;;;;4974652;28;20034;-63
2020/12/07 10:07:09;;;;;;;20.55;10.82;;;9.60;65.10;;;;;;4974631;28;20129;-63
2020/12/07 10:09:35;;;;;;;19.80;10.85;;;9.60;64.40;;;;;;4977443;28;20046;-63
2020/12/07 10:12:01;;;;;;;19.05;10.77;;;9.60;64.30;;;;;;4969419;28;20129;-63
2020/12/07 10:14:26;;;;;;;21.75;11.25;;;9.60;64.30;;;;;;4967417;28;20039;-63
2020/12/07 10:16:52;;;;;;;20.48;11.23;;;9.50;64.30;;;;;;4967752;28;20546;-64
2020/12/07 10:19:18;;;;;;;18.67;11.90;;;9.50;64.30;;;;;;4970402;28;20134;-64
2020/12/07 10:21:43;;;;;;;19.23;11.90;;;9.50;64.40;;;;;;4987501;28;20517;-63
2020/12/07 10:24:09;;;;;;;24.20;12.52;;;9.50;64.50;;;;;;4959578;28;20042;-63
2020/12/07 10:26:34;;;;;;;21.73;12.27;;;9.50;64.40;;;;;;4974691;28;20137;-63
2020/12/07 10:29:00;;;;;;;21.20;11.73;;;9.40;64.40;;;;;;4970359;28;20050;-63
2020/12/07 10:31:26;;;;;;;21.20;12.30;;;9.40;65.30;;;;;;4970711;28;20049;-63
2020/12/07 10:33:54;;;;;;;23.02;12.80;;;9.40;64.60;;;;;;4973576;28;20113;-63
2020/12/07 10:36:21;;;;;;;24.52;11.95;;;9.40;64.40;;;;;;4972288;28;20046;-63
2020/12/07 10:38:47;;;;;;;22.23;12.07;;;9.50;64.50;;;;;;4970070;28;20045;-63
2020/12/07 10:41:14;;;;;;;22.73;13.30;;;9.40;64.50;;;;;;4975706;28;20634;-64
2020/12/07 10:43:40;;;;;;;25.65;14.40;;;9.40;64.60;;;;;;4976053;28;20038;-63
2020/12/07 10:46:06;;;;;;;26.10;14.05;;;9.50;64.80;;;;;;4973830;28;20125;-64
2020/12/07 10:48:32;;;;;;;27.10;14.48;;;9.50;64.70;;;;;;4970160;28;20500;-63
2020/12/07 10:50:58;;;;;;;28.02;14.75;;;9.50;64.70;;;;;;4987563;28;20104;-64
2020/12/07 10:53:26;;;;;;;32.70;15.90;;;9.50;64.80;;;;;;4958846;28;20137;-63
2020/12/07 10:55:52;;;;;;;31.52;16.85;;;9.50;64.70;;;;;;4975687;28;20042;-63
2020/12/07 10:58:19;;;;;;;28.73;16.63;;;9.50;64.70;;;;;;4974325;28;20049;-63
2020/12/07 11:00:45;;;;;;;32.92;17.02;;;9.50;64.60;;;;;;4975256;28;20901;-63
2020/12/07 11:03:13;;;;;;;33.38;18.65;;;9.50;65.40;;;;;;4967346;28;20053;-63
2020/12/07 11:05:40;;;;;;;38.15;18.83;;;9.50;64.70;;;;;;4971486;28;20046;-63
2020/12/07 11:08:12;;;;;;;40.65;20.33;;;9.50;64.70;;;;;;4971192;28;20665;-63
2020/12/07 11:10:37;;;;;;;45.67;20.08;;;9.50;65.40;;;;;;4972207;28;20047;-63
2020/12/07 11:13:10;;;;;;;41.10;21.98;;;9.50;64.70;;;;;;4977248;28;20045;-63
2020/12/07 11:15:36;;;;;;;38.67;20.92;;;9.40;64.70;;;;;;4976985;23;20084;-60
2020/12/07 11:18:02;;;;;;;45.60;22.38;;;9.40;64.90;;;;;;4922836;28;20051;-61
2020/12/07 11:20:27;;;;;;;46.60;23.20;;;9.40;65.00;;;;;;4933547;28;20043;-60
2020/12/07 11:22:53;;;;;;;49.17;24.00;;;9.50;65.10;;;;;;4929898;28;20049;-60
2020/12/07 11:25:18;;;;;;;53.72;23.33;;;9.50;65.10;;;;;;4930006;28;20485;-61
2020/12/07 11:27:44;;;;;;;44.38;23.00;;;9.50;65.10;;;;;;4930619;28;20055;-60
2020/12/07 11:30:09;;;;;;;46.65;23.35;;;9.50;65.20;;;;;;4932912;28;20118;-61
2020/12/07 11:32:35;;;;;;;50.40;24.70;;;9.50;65.20;;;;;;4930145;29;20054;-61
2020/12/07 11:35:01;;;;;;;50.83;24.38;;;9.50;65.20;;;;;;4934416;28;20043;-61
2020/12/07 11:37:26;;;;;;;56.85;24.63;;;9.50;65.30;;;;;;4927846;28;20039;-61
2020/12/07 11:40:16;;;;;;;55.40;25.65;;;9.50;65.30;;;;;;4927361;28;20046;-61
2020/12/07 11:45:06;;;;;;;51.28;25.15;;;9.60;65.30;;;;;;4934803;28;20382;-61
2020/12/07 11:47:32;;;;;;;57.17;26.50;;;9.60;65.40;;;;;;4925478;28;20067;-61
2020/12/07 11:49:58;;;;;;;56.78;27.25;;;9.60;65.50;;;;;;4930904;28;20067;-60
2020/12/07 11:52:24;;;;;;;54.85;26.98;;;9.70;65.60;;;;;;4931079;28;20123;-61
2020/12/07 11:54:49;;;;;;;61.05;29.27;;;9.70;65.60;;;;;;4931335;28;20553;-60
2020/12/07 11:57:15;;;;;;;58.60;26.98;;;9.80;65.70;;;;;;4928449;28;20075;-61
2020/12/07 11:59:41;;;;;;;61.65;28.88;;;9.80;65.70;;;;;;4931687;28;20046;-61
2020/12/07 12:02:06;;;;;;;54.85;28.13;;;9.90;65.80;;;;;;4933019;28;20039;-61
2020/12/07 12:04:32;;;;;;;60.95;27.20;;;9.90;65.70;;;;;;4929244;28;20048;-61
2020/12/07 12:06:58;;;;;;;62.85;26.92;;;9.90;65.70;;;;;;4926625;28;20062;-60
2020/12/07 12:09:24;;;;;;;61.42;29.10;;;10.00;65.70;;;;;;4931780;28;20134;-60
2020/12/07 12:11:49;;;;;;;63.00;28.45;;;10.00;65.80;;;;;;4931244;28;20047;-60
2020/12/07 12:14:15;;;;;;;62.95;27.98;;;10.00;65.70;;;;;;4933825;28;20182;-62
2020/12/07 12:16:41;;;;;;;63.97;27.77;;;10.00;65.70;;;;;;4930099;28;20059;-60
2020/12/07 12:19:11;;;;;;;64.28;27.27;;;10.10;65.70;;;;;;4929365;28;20031;-60
2020/12/07 12:21:38;;;;;;;62.38;27.50;;;10.10;65.70;;;;;;4931324;28;20526;-60
2020/12/07 12:24:05;;;;;;;61.00;27.83;;;10.10;65.70;;;;;;4931998;28;20480;-60
2020/12/07 12:26:32;;;;;;;62.13;28.67;;;10.10;65.70;;;;;;4930801;28;20051;-60
2020/12/07 12:28:58;;;;;;;59.08;27.52;;;10.20;65.90;;;;;;4930577;28;20050;-61
2020/12/07 12:31:24;;;;;;;57.33;26.98;;;10.20;65.90;;;;;;4932626;28;20047;-61
2020/12/07 12:33:50;;;;;;;55.03;25.75;;;10.20;65.90;;;;;;4927850;28;20047;-61
2020/12/07 12:36:20;;;;;;;62.67;27.17;;;10.20;65.90;;;;;;4933649;28;20035;-61
2020/12/07 12:38:46;;;;;;;61.80;26.92;;;10.20;65.90;;;;;;4930387;28;20106;-61
2020/12/07 12:41:13;;;;;;;60.53;26.02;;;10.20;65.90;;;;;;4938514;28;20043;-61
2020/12/07 12:43:39;;;;;;;59.60;27.65;;;10.30;66.00;;;;;;4941739;28;20167;-61
2020/12/07 12:46:05;;;;;;;57.70;26.48;;;10.30;66.00;;;;;;4925669;28;20036;-61
2020/12/07 12:48:32;;;;;;;57.67;26.48;;;10.30;66.00;;;;;;4928568;28;20138;-61
2020/12/07 12:50:58;;;;;;;57.90;25.38;;;10.40;66.10;;;;;;4930739;28;20043;-60
2020/12/07 12:53:24;;;;;;;56.13;23.90;;;10.40;66.00;;;;;;4928890;28;20058;-61
2020/12/07 12:55:50;;;;;;;54.65;24.50;;;10.40;66.00;;;;;;4925894;28;20043;-61
2020/12/07 12:58:15;;;;;;;52.53;24.02;;;10.40;66.00;;;;;;4929831;28;20066;-60
2020/12/07 13:00:41;;;;;;;57.03;24.33;;;10.40;66.10;;;;;;4941897;28;20464;-61
2020/12/07 13:03:06;;;;;;;54.28;22.77;;;10.40;66.00;;;;;;4929187;28;20131;-61
2020/12/07 13:05:32;;;;;;;53.20;22.80;;;10.50;66.00;;;;;;4929284;28;20074;-61
2020/12/07 13:07:58;;;;;;;48.90;21.83;;;10.50;66.00;;;;;;4928825;28;20058;-60
2020/12/07 13:10:23;;;;;;;50.60;22.85;;;10.50;66.00;;;;;;4923461;28;20515;-61